sensor_id;sensor_type;location;lat;lon;timestamp;temperature;humidity
921;DHT22;447;51.332;6.778;2023-03-02T00:02:24;5.30;95.20
921;DHT22;447;51.332;6.778;2023-03-02T00:07:21;5.30;95.20
921;DHT22;447;51.332;6.778;2023-03-02T00:09:52;5.30;95.20
921;DHT22;447;51.332;6.778;2023-03-02T00:12:21;5.30;95.20
921;DHT22;447;51.332;6.778;2023-03-02T00:14:54;5.30;95.20
921;DHT22;447;51.332;6.778;2023-03-02T00:17:20;5.30;95.20
921;DHT22;447;51.332;6.778;2023-03-02T00:19:56;5.30;95.30
921;DHT22;447;51.332;6.778;2023-03-02T00:22:32;5.30;95.20
921;DHT22;447;51.332;6.778;2023-03-02T00:25:01;5.30;95.20
921;DHT22;447;51.332;6.778;2023-03-02T00:27:29;5.30;95.20
921;DHT22;447;51.332;6.778;2023-03-02T00:29:56;5.30;95.20
921;DHT22;447;51.332;6.778;2023-03-02T00:32:22;5.30;95.20
921;DHT22;447;51.332;6.778;2023-03-02T00:34:49;5.30;95.20
921;DHT22;447;51.332;6.778;2023-03-02T00:37:15;5.30;95.20
921;DHT22;447;51.332;6.778;2023-03-02T00:39:41;5.30;95.30
921;DHT22;447;51.332;6.778;2023-03-02T00:42:14;5.30;95.30
921;DHT22;447;51.332;6.778;2023-03-02T00:44:40;5.30;95.30
921;DHT22;447;51.332;6.778;2023-03-02T00:47:07;5.30;95.30
921;DHT22;447;51.332;6.778;2023-03-02T00:49:32;5.30;95.30
921;DHT22;447;51.332;6.778;2023-03-02T00:51:59;5.30;95.30
921;DHT22;447;51.332;6.778;2023-03-02T00:54:25;5.30;95.30
921;DHT22;447;51.332;6.778;2023-03-02T00:56:51;5.20;95.30
921;DHT22;447;51.332;6.778;2023-03-02T00:59:19;5.20;95.30
921;DHT22;447;51.332;6.778;2023-03-02T01:02:04;5.20;95.30
921;DHT22;447;51.332;6.778;2023-03-02T01:04:37;5.20;95.60
921;DHT22;447;51.332;6.778;2023-03-02T01:07:08;5.20;95.30
921;DHT22;447;51.332;6.778;2023-03-02T01:09:36;5.20;95.30
921;DHT22;447;51.332;6.778;2023-03-02T01:12:02;5.20;95.30
921;DHT22;447;51.332;6.778;2023-03-02T01:14:30;5.20;95.30
921;DHT22;447;51.332;6.778;2023-03-02T01:16:56;5.20;95.30
921;DHT22;447;51.332;6.778;2023-03-02T01:19:23;5.20;95.30
921;DHT22;447;51.332;6.778;2023-03-02T01:21:49;5.20;95.30
921;DHT22;447;51.332;6.778;2023-03-02T01:24:15;5.20;95.30
921;DHT22;447;51.332;6.778;2023-03-02T01:26:44;5.20;95.30
921;DHT22;447;51.332;6.778;2023-03-02T01:29:12;5.20;95.30
921;DHT22;447;51.332;6.778;2023-03-02T01:31:38;5.20;95.30
921;DHT22;447;51.332;6.778;2023-03-02T01:34:07;5.20;95.30
921;DHT22;447;51.332;6.778;2023-03-02T01:36:36;5.20;95.30
921;DHT22;447;51.332;6.778;2023-03-02T01:39:06;5.20;95.30
921;DHT22;447;51.332;6.778;2023-03-02T01:41:32;5.20;95.30
921;DHT22;447;51.332;6.778;2023-03-02T01:44:03;5.20;95.40
921;DHT22;447;51.332;6.778;2023-03-02T01:46:29;5.10;95.30
921;DHT22;447;51.332;6.778;2023-03-02T01:49:06;5.10;95.40
921;DHT22;447;51.332;6.778;2023-03-02T01:51:51;5.10;95.30
921;DHT22;447;51.332;6.778;2023-03-02T01:54:20;5.10;95.40
921;DHT22;447;51.332;6.778;2023-03-02T01:56:58;5.10;95.40
921;DHT22;447;51.332;6.778;2023-03-02T01:59:27;5.10;95.40
921;DHT22;447;51.332;6.778;2023-03-02T02:02:00;5.10;95.40
921;DHT22;447;51.332;6.778;2023-03-02T02:04:29;5.10;95.50
921;DHT22;447;51.332;6.778;2023-03-02T02:07:01;5.00;95.50
921;DHT22;447;51.332;6.778;2023-03-02T02:09:31;5.00;95.50
921;DHT22;447;51.332;6.778;2023-03-02T02:11:58;5.00;95.50
921;DHT22;447;51.332;6.778;2023-03-02T02:14:24;5.00;95.50
921;DHT22;447;51.332;6.778;2023-03-02T02:16:51;5.00;95.50
921;DHT22;447;51.332;6.778;2023-03-02T02:19:24;5.00;95.60
921;DHT22;447;51.332;6.778;2023-03-02T02:21:58;5.00;95.60
921;DHT22;447;51.332;6.778;2023-03-02T02:24:37;5.00;95.50
921;DHT22;447;51.332;6.778;2023-03-02T02:27:11;5.00;95.50
921;DHT22;447;51.332;6.778;2023-03-02T02:29:45;5.00;95.50
921;DHT22;447;51.332;6.778;2023-03-02T02:32:29;5.00;95.50
921;DHT22;447;51.332;6.778;2023-03-02T02:35:19;5.00;95.50
921;DHT22;447;51.332;6.778;2023-03-02T02:37:55;5.00;95.50
921;DHT22;447;51.332;6.778;2023-03-02T02:40:51;4.90;95.40
921;DHT22;447;51.332;6.778;2023-03-02T02:43:22;4.90;95.40
921;DHT22;447;51.332;6.778;2023-03-02T02:45:54;4.90;95.40
921;DHT22;447;51.332;6.778;2023-03-02T02:48:26;4.90;95.40
921;DHT22;447;51.332;6.778;2023-03-02T02:50:56;4.90;95.40
921;DHT22;447;51.332;6.778;2023-03-02T02:53:47;4.90;95.40
921;DHT22;447;51.332;6.778;2023-03-02T02:56:15;4.90;95.40
921;DHT22;447;51.332;6.778;2023-03-02T02:58:52;4.90;95.40
921;DHT22;447;51.332;6.778;2023-03-02T03:01:24;4.90;95.40
921;DHT22;447;51.332;6.778;2023-03-02T03:04:01;4.90;95.30
921;DHT22;447;51.332;6.778;2023-03-02T03:06:29;4.90;95.30
921;DHT22;447;51.332;6.778;2023-03-02T03:09:08;4.90;95.30
921;DHT22;447;51.332;6.778;2023-03-02T03:11:48;4.90;95.30
921;DHT22;447;51.332;6.778;2023-03-02T03:14:23;4.90;95.30
921;DHT22;447;51.332;6.778;2023-03-02T03:16:54;4.90;95.30
921;DHT22;447;51.332;6.778;2023-03-02T03:19:24;4.90;95.20
921;DHT22;447;51.332;6.778;2023-03-02T03:21:54;4.90;95.20
921;DHT22;447;51.332;6.778;2023-03-02T03:24:28;4.80;95.20
921;DHT22;447;51.332;6.778;2023-03-02T03:26:59;4.80;95.20
921;DHT22;447;51.332;6.778;2023-03-02T03:29:29;4.80;95.60
921;DHT22;447;51.332;6.778;2023-03-02T03:32:03;4.80;95.20
921;DHT22;447;51.332;6.778;2023-03-02T03:34:33;4.80;95.20
921;DHT22;447;51.332;6.778;2023-03-02T03:37:10;4.80;95.20
921;DHT22;447;51.332;6.778;2023-03-02T03:39:37;4.80;95.20
921;DHT22;447;51.332;6.778;2023-03-02T03:42:04;4.80;95.20
921;DHT22;447;51.332;6.778;2023-03-02T03:44:35;4.80;95.20
921;DHT22;447;51.332;6.778;2023-03-02T03:47:04;4.80;95.20
921;DHT22;447;51.332;6.778;2023-03-02T03:49:32;4.80;95.20
921;DHT22;447;51.332;6.778;2023-03-02T03:52:04;4.80;95.20
921;DHT22;447;51.332;6.778;2023-03-02T03:54:30;4.80;95.30
921;DHT22;447;51.332;6.778;2023-03-02T03:56:56;4.80;95.20
921;DHT22;447;51.332;6.778;2023-03-02T03:59:24;4.80;95.20
921;DHT22;447;51.332;6.778;2023-03-02T04:01:59;4.80;95.30
921;DHT22;447;51.332;6.778;2023-03-02T04:04:33;4.70;95.30
921;DHT22;447;51.332;6.778;2023-03-02T04:07:10;4.70;95.20
921;DHT22;447;51.332;6.778;2023-03-02T04:09:36;4.70;95.20
921;DHT22;447;51.332;6.778;2023-03-02T04:12:08;4.70;95.30
921;DHT22;447;51.332;6.778;2023-03-02T04:14:35;4.70;95.30
921;DHT22;447;51.332;6.778;2023-03-02T04:17:06;4.70;95.30
921;DHT22;447;51.332;6.778;2023-03-02T04:19:35;4.70;95.30
921;DHT22;447;51.332;6.778;2023-03-02T04:22:04;4.70;95.30
921;DHT22;447;51.332;6.778;2023-03-02T04:24:34;4.70;95.30
921;DHT22;447;51.332;6.778;2023-03-02T04:27:02;4.70;95.30
921;DHT22;447;51.332;6.778;2023-03-02T04:29:29;4.70;95.30
921;DHT22;447;51.332;6.778;2023-03-02T04:32:00;4.70;95.30
921;DHT22;447;51.332;6.778;2023-03-02T04:34:27;4.70;95.30
921;DHT22;447;51.332;6.778;2023-03-02T04:36:59;4.70;95.30
921;DHT22;447;51.332;6.778;2023-03-02T04:39:30;4.70;95.30
921;DHT22;447;51.332;6.778;2023-03-02T04:41:56;4.70;95.30
921;DHT22;447;51.332;6.778;2023-03-02T04:44:26;4.70;95.30
921;DHT22;447;51.332;6.778;2023-03-02T04:46:54;4.70;95.30
921;DHT22;447;51.332;6.778;2023-03-02T04:49:21;4.70;95.30
921;DHT22;447;51.332;6.778;2023-03-02T04:51:51;4.60;95.30
921;DHT22;447;51.332;6.778;2023-03-02T04:54:25;4.60;95.30
921;DHT22;447;51.332;6.778;2023-03-02T04:56:54;4.70;95.30
921;DHT22;447;51.332;6.778;2023-03-02T04:59:24;4.60;95.20
921;DHT22;447;51.332;6.778;2023-03-02T05:01:58;4.60;95.20
921;DHT22;447;51.332;6.778;2023-03-02T05:04:25;4.60;95.20
921;DHT22;447;51.332;6.778;2023-03-02T05:06:55;4.60;95.10
921;DHT22;447;51.332;6.778;2023-03-02T05:09:24;4.60;95.10
921;DHT22;447;51.332;6.778;2023-03-02T05:11:59;4.60;95.10
921;DHT22;447;51.332;6.778;2023-03-02T05:14:25;4.60;95.10
921;DHT22;447;51.332;6.778;2023-03-02T05:16:54;4.60;95.00
921;DHT22;447;51.332;6.778;2023-03-02T05:19:22;4.60;95.00
921;DHT22;447;51.332;6.778;2023-03-02T05:21:48;4.60;95.00
921;DHT22;447;51.332;6.778;2023-03-02T05:24:14;4.60;95.00
921;DHT22;447;51.332;6.778;2023-03-02T05:26:47;4.50;94.90
921;DHT22;447;51.332;6.778;2023-03-02T05:29:18;4.50;94.90
921;DHT22;447;51.332;6.778;2023-03-02T05:31:47;4.50;94.90
921;DHT22;447;51.332;6.778;2023-03-02T05:34:14;4.50;94.90
921;DHT22;447;51.332;6.778;2023-03-02T05:36:41;4.50;94.80
921;DHT22;447;51.332;6.778;2023-03-02T05:39:08;4.60;94.90
921;DHT22;447;51.332;6.778;2023-03-02T05:41:37;4.50;95.10
921;DHT22;447;51.332;6.778;2023-03-02T05:44:06;4.50;94.70
921;DHT22;447;51.332;6.778;2023-03-02T05:46:36;4.50;94.70
921;DHT22;447;51.332;6.778;2023-03-02T05:49:06;4.50;94.70
921;DHT22;447;51.332;6.778;2023-03-02T05:51:32;4.50;94.70
921;DHT22;447;51.332;6.778;2023-03-02T05:53:58;4.50;94.70
921;DHT22;447;51.332;6.778;2023-03-02T05:56:26;4.50;94.70
921;DHT22;447;51.332;6.778;2023-03-02T05:58:52;4.50;94.70
921;DHT22;447;51.332;6.778;2023-03-02T06:01:20;4.50;94.60
921;DHT22;447;51.332;6.778;2023-03-02T06:03:46;4.50;94.60
921;DHT22;447;51.332;6.778;2023-03-02T06:06:15;4.50;94.60
921;DHT22;447;51.332;6.778;2023-03-02T06:08:42;4.50;94.60
921;DHT22;447;51.332;6.778;2023-03-02T06:11:09;4.50;94.60
921;DHT22;447;51.332;6.778;2023-03-02T06:13:35;4.50;94.60
921;DHT22;447;51.332;6.778;2023-03-02T06:16:01;4.50;94.60
921;DHT22;447;51.332;6.778;2023-03-02T06:18:27;4.50;94.60
921;DHT22;447;51.332;6.778;2023-03-02T06:20:53;4.50;94.60
921;DHT22;447;51.332;6.778;2023-03-02T06:23:22;4.50;94.60
921;DHT22;447;51.332;6.778;2023-03-02T06:25:48;4.40;94.60
921;DHT22;447;51.332;6.778;2023-03-02T06:28:15;4.50;94.70
921;DHT22;447;51.332;6.778;2023-03-02T06:30:43;4.40;94.60
921;DHT22;447;51.332;6.778;2023-03-02T06:33:09;4.40;94.60
921;DHT22;447;51.332;6.778;2023-03-02T06:35:36;4.40;94.60
921;DHT22;447;51.332;6.778;2023-03-02T06:38:02;4.40;94.60
921;DHT22;447;51.332;6.778;2023-03-02T06:40:28;4.40;94.70
921;DHT22;447;51.332;6.778;2023-03-02T06:43:01;4.40;94.70
921;DHT22;447;51.332;6.778;2023-03-02T06:45:29;4.40;94.70
921;DHT22;447;51.332;6.778;2023-03-02T06:48:01;4.40;94.70
921;DHT22;447;51.332;6.778;2023-03-02T06:50:32;4.40;94.70
921;DHT22;447;51.332;6.778;2023-03-02T06:53:01;4.40;94.80
921;DHT22;447;51.332;6.778;2023-03-02T06:55:27;4.40;94.80
921;DHT22;447;51.332;6.778;2023-03-02T06:57:52;4.40;94.80
921;DHT22;447;51.332;6.778;2023-03-02T07:00:19;4.40;94.80
921;DHT22;447;51.332;6.778;2023-03-02T07:02:55;4.40;94.70
921;DHT22;447;51.332;6.778;2023-03-02T07:05:22;4.40;94.70
921;DHT22;447;51.332;6.778;2023-03-02T07:07:49;4.40;94.70
921;DHT22;447;51.332;6.778;2023-03-02T07:10:18;4.40;94.70
921;DHT22;447;51.332;6.778;2023-03-02T07:12:44;4.40;94.80
921;DHT22;447;51.332;6.778;2023-03-02T07:15:10;4.30;94.80
921;DHT22;447;51.332;6.778;2023-03-02T07:17:39;4.40;94.80
921;DHT22;447;51.332;6.778;2023-03-02T07:20:06;4.30;94.80
921;DHT22;447;51.332;6.778;2023-03-02T07:22:32;4.30;94.80
921;DHT22;447;51.332;6.778;2023-03-02T07:24:58;4.40;94.80
921;DHT22;447;51.332;6.778;2023-03-02T07:27:27;4.30;94.80
921;DHT22;447;51.332;6.778;2023-03-02T07:29:53;4.30;94.80
921;DHT22;447;51.332;6.778;2023-03-02T07:32:22;4.30;94.70
921;DHT22;447;51.332;6.778;2023-03-02T07:34:48;4.30;94.80
921;DHT22;447;51.332;6.778;2023-03-02T07:37:16;4.30;94.80
921;DHT22;447;51.332;6.778;2023-03-02T07:39:46;4.30;94.80
921;DHT22;447;51.332;6.778;2023-03-02T07:42:15;4.30;94.70
921;DHT22;447;51.332;6.778;2023-03-02T07:44:45;4.30;94.70
921;DHT22;447;51.332;6.778;2023-03-02T07:47:11;4.30;94.70
921;DHT22;447;51.332;6.778;2023-03-02T07:49:37;4.30;94.70
921;DHT22;447;51.332;6.778;2023-03-02T07:52:08;4.30;94.70
921;DHT22;447;51.332;6.778;2023-03-02T07:54:36;4.30;94.70
921;DHT22;447;51.332;6.778;2023-03-02T07:57:02;4.30;94.70
921;DHT22;447;51.332;6.778;2023-03-02T07:59:34;4.30;94.70
921;DHT22;447;51.332;6.778;2023-03-02T08:02:03;4.30;94.70
921;DHT22;447;51.332;6.778;2023-03-02T08:04:29;4.30;94.70
921;DHT22;447;51.332;6.778;2023-03-02T08:06:56;4.30;94.70
921;DHT22;447;51.332;6.778;2023-03-02T08:09:26;4.30;94.70
921;DHT22;447;51.332;6.778;2023-03-02T08:11:52;4.30;94.60
921;DHT22;447;51.332;6.778;2023-03-02T08:14:21;4.30;94.60
921;DHT22;447;51.332;6.778;2023-03-02T08:16:51;4.30;94.60
921;DHT22;447;51.332;6.778;2023-03-02T08:19:20;4.30;94.60
921;DHT22;447;51.332;6.778;2023-03-02T08:21:50;4.30;94.60
921;DHT22;447;51.332;6.778;2023-03-02T08:24:16;4.30;94.60
921;DHT22;447;51.332;6.778;2023-03-02T08:26:46;4.30;94.50
921;DHT22;447;51.332;6.778;2023-03-02T08:29:15;4.30;94.50
921;DHT22;447;51.332;6.778;2023-03-02T08:31:43;4.30;94.60
921;DHT22;447;51.332;6.778;2023-03-02T08:34:11;4.30;94.60
921;DHT22;447;51.332;6.778;2023-03-02T08:36:39;4.30;94.80
921;DHT22;447;51.332;6.778;2023-03-02T08:39:10;4.30;94.80
921;DHT22;447;51.332;6.778;2023-03-02T08:41:39;4.30;94.90
921;DHT22;447;51.332;6.778;2023-03-02T08:44:05;4.30;94.80
921;DHT22;447;51.332;6.778;2023-03-02T08:46:30;4.30;94.80
921;DHT22;447;51.332;6.778;2023-03-02T08:48:59;4.30;94.80
921;DHT22;447;51.332;6.778;2023-03-02T08:51:28;4.30;94.80
921;DHT22;447;51.332;6.778;2023-03-02T08:53:54;4.30;94.90
921;DHT22;447;51.332;6.778;2023-03-02T08:56:28;4.30;94.90
921;DHT22;447;51.332;6.778;2023-03-02T08:59:02;4.30;95.30
921;DHT22;447;51.332;6.778;2023-03-02T09:01:32;4.40;94.90
921;DHT22;447;51.332;6.778;2023-03-02T09:04:02;4.40;95.30
921;DHT22;447;51.332;6.778;2023-03-02T09:06:33;4.40;94.90
921;DHT22;447;51.332;6.778;2023-03-02T09:09:01;4.40;94.90
921;DHT22;447;51.332;6.778;2023-03-02T09:11:27;4.40;94.80
921;DHT22;447;51.332;6.778;2023-03-02T09:13:54;4.40;94.80
921;DHT22;447;51.332;6.778;2023-03-02T09:16:21;4.40;94.80
921;DHT22;447;51.332;6.778;2023-03-02T09:18:53;4.40;94.80
921;DHT22;447;51.332;6.778;2023-03-02T09:21:19;4.50;94.90
921;DHT22;447;51.332;6.778;2023-03-02T09:23:48;4.50;94.90
921;DHT22;447;51.332;6.778;2023-03-02T09:26:23;4.50;94.90
921;DHT22;447;51.332;6.778;2023-03-02T09:28:53;4.50;94.90
921;DHT22;447;51.332;6.778;2023-03-02T09:31:21;4.50;94.90
921;DHT22;447;51.332;6.778;2023-03-02T09:33:52;4.50;94.90
921;DHT22;447;51.332;6.778;2023-03-02T09:36:23;4.60;94.90
921;DHT22;447;51.332;6.778;2023-03-02T09:38:50;4.60;94.90
921;DHT22;447;51.332;6.778;2023-03-02T09:54:25;4.70;94.70
921;DHT22;447;51.332;6.778;2023-03-02T09:56:54;4.80;94.60
921;DHT22;447;51.332;6.778;2023-03-02T09:59:25;4.80;94.50
921;DHT22;447;51.332;6.778;2023-03-02T10:04:44;4.90;94.50
921;DHT22;447;51.332;6.778;2023-03-02T10:07:13;4.90;94.40
921;DHT22;447;51.332;6.778;2023-03-02T10:09:40;4.90;94.40
921;DHT22;447;51.332;6.778;2023-03-02T10:15:07;5.00;94.40
921;DHT22;447;51.332;6.778;2023-03-02T10:17:47;5.00;94.40
921;DHT22;447;51.332;6.778;2023-03-02T10:20:35;5.00;94.30
921;DHT22;447;51.332;6.778;2023-03-02T10:28:46;5.10;94.20
921;DHT22;447;51.332;6.778;2023-03-02T10:31:25;5.20;94.20
921;DHT22;447;51.332;6.778;2023-03-02T10:33:57;5.20;94.20
921;DHT22;447;51.332;6.778;2023-03-02T10:36:34;5.10;94.10
921;DHT22;447;51.332;6.778;2023-03-02T10:39:13;5.20;94.10
921;DHT22;447;51.332;6.778;2023-03-02T10:44:34;5.20;94.20
921;DHT22;447;51.332;6.778;2023-03-02T10:47:04;5.30;94.20
921;DHT22;447;51.332;6.778;2023-03-02T10:49:33;5.30;94.20
921;DHT22;447;51.332;6.778;2023-03-02T10:52:14;5.30;94.20
921;DHT22;447;51.332;6.778;2023-03-02T10:54:41;5.30;94.20
921;DHT22;447;51.332;6.778;2023-03-02T10:57:36;5.40;94.20
921;DHT22;447;51.332;6.778;2023-03-02T11:00:24;5.40;94.20
921;DHT22;447;51.332;6.778;2023-03-02T11:02:56;5.40;94.10
921;DHT22;447;51.332;6.778;2023-03-02T11:05:36;5.50;94.10
921;DHT22;447;51.332;6.778;2023-03-02T11:08:09;5.50;94.00
921;DHT22;447;51.332;6.778;2023-03-02T11:10:50;5.50;94.00
921;DHT22;447;51.332;6.778;2023-03-02T11:15:59;5.60;93.90
921;DHT22;447;51.332;6.778;2023-03-02T11:18:37;5.60;93.90
921;DHT22;447;51.332;6.778;2023-03-02T11:24:22;5.70;93.90
921;DHT22;447;51.332;6.778;2023-03-02T11:32:33;5.70;93.80
921;DHT22;447;51.332;6.778;2023-03-02T11:35:07;5.80;93.80
921;DHT22;447;51.332;6.778;2023-03-02T11:37:48;5.80;93.80
921;DHT22;447;51.332;6.778;2023-03-02T11:40:29;5.80;93.80
921;DHT22;447;51.332;6.778;2023-03-02T11:42:58;5.80;93.70
921;DHT22;447;51.332;6.778;2023-03-02T11:45:34;5.90;93.70
921;DHT22;447;51.332;6.778;2023-03-02T11:48:07;5.90;93.70
921;DHT22;447;51.332;6.778;2023-03-02T11:50:49;5.90;93.60
921;DHT22;447;51.332;6.778;2023-03-02T11:53:20;5.90;93.60
921;DHT22;447;51.332;6.778;2023-03-02T11:55:48;6.00;93.60
921;DHT22;447;51.332;6.778;2023-03-02T11:58:18;6.00;93.60
921;DHT22;447;51.332;6.778;2023-03-02T12:00:46;6.00;93.50
921;DHT22;447;51.332;6.778;2023-03-02T12:05:57;6.10;93.50
921;DHT22;447;51.332;6.778;2023-03-02T12:13:39;6.10;93.50
921;DHT22;447;51.332;6.778;2023-03-02T12:19:12;6.20;93.50
921;DHT22;447;51.332;6.778;2023-03-02T12:21:58;6.20;93.40
921;DHT22;447;51.332;6.778;2023-03-02T12:24:35;6.30;93.40
921;DHT22;447;51.332;6.778;2023-03-02T12:27:03;6.30;93.40
921;DHT22;447;51.332;6.778;2023-03-02T12:29:44;6.30;93.40
921;DHT22;447;51.332;6.778;2023-03-02T12:35:14;6.30;93.30
921;DHT22;447;51.332;6.778;2023-03-02T12:37:51;6.40;93.30
921;DHT22;447;51.332;6.778;2023-03-02T12:43:40;6.40;93.20
921;DHT22;447;51.332;6.778;2023-03-02T12:46:29;6.40;93.20
921;DHT22;447;51.332;6.778;2023-03-02T12:51:27;6.50;93.20
921;DHT22;447;51.332;6.778;2023-03-02T12:54:10;6.50;93.10
921;DHT22;447;51.332;6.778;2023-03-02T12:56:39;6.60;93.10
921;DHT22;447;51.332;6.778;2023-03-02T12:59:05;6.60;93.10
921;DHT22;447;51.332;6.778;2023-03-02T13:01:32;6.60;93.00
921;DHT22;447;51.332;6.778;2023-03-02T13:04:01;6.60;93.00
921;DHT22;447;51.332;6.778;2023-03-02T13:06:30;6.70;93.00
921;DHT22;447;51.332;6.778;2023-03-02T13:08:58;6.70;92.90
921;DHT22;447;51.332;6.778;2023-03-02T13:11:29;6.70;92.90
921;DHT22;447;51.332;6.778;2023-03-02T13:13:59;6.70;92.80
921;DHT22;447;51.332;6.778;2023-03-02T13:16:32;6.70;92.70
921;DHT22;447;51.332;6.778;2023-03-02T13:19:11;6.80;92.70
921;DHT22;447;51.332;6.778;2023-03-02T13:21:39;6.80;92.60
921;DHT22;447;51.332;6.778;2023-03-02T13:27:05;6.90;92.70
921;DHT22;447;51.332;6.778;2023-03-02T13:29:31;6.90;92.60
921;DHT22;447;51.332;6.778;2023-03-02T13:35:18;6.90;92.50
921;DHT22;447;51.332;6.778;2023-03-02T13:37:53;6.90;92.30
921;DHT22;447;51.332;6.778;2023-03-02T13:42:57;7.00;92.30
921;DHT22;447;51.332;6.778;2023-03-02T13:45:28;7.00;92.40
921;DHT22;447;51.332;6.778;2023-03-02T13:47:58;7.00;92.40
921;DHT22;447;51.332;6.778;2023-03-02T13:50:29;7.00;92.30
921;DHT22;447;51.332;6.778;2023-03-02T13:53:01;7.00;92.40
921;DHT22;447;51.332;6.778;2023-03-02T13:55:34;7.10;92.30
921;DHT22;447;51.332;6.778;2023-03-02T13:58:00;7.10;92.10
921;DHT22;447;51.332;6.778;2023-03-02T14:00:34;7.10;92.00
921;DHT22;447;51.332;6.778;2023-03-02T14:03:01;7.10;91.90
921;DHT22;447;51.332;6.778;2023-03-02T14:05:29;7.10;92.10
921;DHT22;447;51.332;6.778;2023-03-02T14:07:58;7.10;92.10
921;DHT22;447;51.332;6.778;2023-03-02T14:10:25;7.20;92.00
921;DHT22;447;51.332;6.778;2023-03-02T14:13:06;7.20;91.90
921;DHT22;447;51.332;6.778;2023-03-02T14:15:40;7.20;92.20
921;DHT22;447;51.332;6.778;2023-03-02T14:18:35;7.20;92.20
921;DHT22;447;51.332;6.778;2023-03-02T14:21:05;7.20;92.20
921;DHT22;447;51.332;6.778;2023-03-02T14:23:35;7.20;92.20
921;DHT22;447;51.332;6.778;2023-03-02T14:26:03;7.20;92.00
921;DHT22;447;51.332;6.778;2023-03-02T14:28:38;7.30;91.90
921;DHT22;447;51.332;6.778;2023-03-02T14:31:07;7.30;91.90
921;DHT22;447;51.332;6.778;2023-03-02T14:33:33;7.30;91.90
921;DHT22;447;51.332;6.778;2023-03-02T14:36:04;7.30;91.90
921;DHT22;447;51.332;6.778;2023-03-02T14:38:31;7.30;91.90
921;DHT22;447;51.332;6.778;2023-03-02T14:41:00;7.30;91.90
921;DHT22;447;51.332;6.778;2023-03-02T14:43:26;7.30;91.80
921;DHT22;447;51.332;6.778;2023-03-02T14:45:52;7.40;91.90
921;DHT22;447;51.332;6.778;2023-03-02T14:48:18;7.40;92.00
921;DHT22;447;51.332;6.778;2023-03-02T14:50:48;7.40;92.20
921;DHT22;447;51.332;6.778;2023-03-02T14:53:22;7.40;92.30
921;DHT22;447;51.332;6.778;2023-03-02T14:55:50;7.40;92.20
921;DHT22;447;51.332;6.778;2023-03-02T14:58:24;7.40;92.10
921;DHT22;447;51.332;6.778;2023-03-02T15:00:52;7.50;92.10
921;DHT22;447;51.332;6.778;2023-03-02T15:03:18;7.50;91.80
921;DHT22;447;51.332;6.778;2023-03-02T15:05:47;7.50;91.80
921;DHT22;447;51.332;6.778;2023-03-02T15:08:13;7.50;91.70
921;DHT22;447;51.332;6.778;2023-03-02T15:10:44;7.50;91.70
921;DHT22;447;51.332;6.778;2023-03-02T15:13:12;7.50;91.70
921;DHT22;447;51.332;6.778;2023-03-02T15:15:40;7.50;91.80
921;DHT22;447;51.332;6.778;2023-03-02T15:18:06;7.50;91.80
921;DHT22;447;51.332;6.778;2023-03-02T15:20:33;7.60;92.10
921;DHT22;447;51.332;6.778;2023-03-02T15:23:04;7.60;92.30
921;DHT22;447;51.332;6.778;2023-03-02T15:25:30;7.60;92.20
921;DHT22;447;51.332;6.778;2023-03-02T15:27:58;7.60;92.20
921;DHT22;447;51.332;6.778;2023-03-02T15:30:24;7.60;92.20
921;DHT22;447;51.332;6.778;2023-03-02T15:32:58;7.60;92.40
921;DHT22;447;51.332;6.778;2023-03-02T15:35:27;7.60;92.40
921;DHT22;447;51.332;6.778;2023-03-02T15:37:58;7.60;92.20
921;DHT22;447;51.332;6.778;2023-03-02T15:40:29;7.70;92.30
921;DHT22;447;51.332;6.778;2023-03-02T15:42:57;7.70;92.30
921;DHT22;447;51.332;6.778;2023-03-02T15:45:23;7.70;92.40
921;DHT22;447;51.332;6.778;2023-03-02T15:47:51;7.70;92.30
921;DHT22;447;51.332;6.778;2023-03-02T15:50:20;7.70;92.30
921;DHT22;447;51.332;6.778;2023-03-02T15:52:46;7.70;92.30
921;DHT22;447;51.332;6.778;2023-03-02T15:55:12;7.70;92.30
921;DHT22;447;51.332;6.778;2023-03-02T15:57:40;7.70;92.30
921;DHT22;447;51.332;6.778;2023-03-02T16:00:09;7.70;92.50
921;DHT22;447;51.332;6.778;2023-03-02T16:02:38;7.80;92.60
921;DHT22;447;51.332;6.778;2023-03-02T16:05:07;7.70;92.50
921;DHT22;447;51.332;6.778;2023-03-02T16:07:33;7.70;92.60
921;DHT22;447;51.332;6.778;2023-03-02T16:10:06;7.70;92.60
921;DHT22;447;51.332;6.778;2023-03-02T16:12:35;7.70;92.60
921;DHT22;447;51.332;6.778;2023-03-02T16:15:03;7.80;92.70
921;DHT22;447;51.332;6.778;2023-03-02T16:17:29;7.80;92.60
921;DHT22;447;51.332;6.778;2023-03-02T16:19:55;7.70;92.60
921;DHT22;447;51.332;6.778;2023-03-02T16:22:23;7.70;92.60
921;DHT22;447;51.332;6.778;2023-03-02T16:24:49;7.70;92.50
921;DHT22;447;51.332;6.778;2023-03-02T16:27:15;7.70;92.60
921;DHT22;447;51.332;6.778;2023-03-02T16:29:43;7.80;92.60
921;DHT22;447;51.332;6.778;2023-03-02T16:32:12;7.70;92.50
921;DHT22;447;51.332;6.778;2023-03-02T16:34:38;7.70;92.60
921;DHT22;447;51.332;6.778;2023-03-02T16:37:06;7.80;92.70
921;DHT22;447;51.332;6.778;2023-03-02T16:39:35;7.70;92.60
921;DHT22;447;51.332;6.778;2023-03-02T16:42:01;7.80;92.70
921;DHT22;447;51.332;6.778;2023-03-02T16:44:31;7.70;92.70
921;DHT22;447;51.332;6.778;2023-03-02T16:47:02;7.70;92.70
921;DHT22;447;51.332;6.778;2023-03-02T16:49:29;7.70;92.70
921;DHT22;447;51.332;6.778;2023-03-02T16:51:57;7.70;92.70
921;DHT22;447;51.332;6.778;2023-03-02T16:54:26;7.70;92.70
921;DHT22;447;51.332;6.778;2023-03-02T16:56:52;7.70;92.70
921;DHT22;447;51.332;6.778;2023-03-02T16:59:18;7.70;92.80
921;DHT22;447;51.332;6.778;2023-03-02T17:01:47;7.70;92.80
921;DHT22;447;51.332;6.778;2023-03-02T17:04:13;7.70;92.80
921;DHT22;447;51.332;6.778;2023-03-02T17:06:44;7.70;92.90
921;DHT22;447;51.332;6.778;2023-03-02T17:09:13;7.70;92.90
921;DHT22;447;51.332;6.778;2023-03-02T17:11:42;7.70;93.00
921;DHT22;447;51.332;6.778;2023-03-02T17:14:08;7.70;93.00
921;DHT22;447;51.332;6.778;2023-03-02T17:16:36;7.70;93.00
921;DHT22;447;51.332;6.778;2023-03-02T17:19:01;7.70;93.10
921;DHT22;447;51.332;6.778;2023-03-02T17:21:32;7.70;93.10
921;DHT22;447;51.332;6.778;2023-03-02T17:23:59;7.70;93.20
921;DHT22;447;51.332;6.778;2023-03-02T17:26:29;7.70;93.20
921;DHT22;447;51.332;6.778;2023-03-02T17:28:58;7.70;93.20
921;DHT22;447;51.332;6.778;2023-03-02T17:31:26;7.70;93.30
921;DHT22;447;51.332;6.778;2023-03-02T17:33:52;7.70;93.30
921;DHT22;447;51.332;6.778;2023-03-02T17:36:18;7.70;93.30
921;DHT22;447;51.332;6.778;2023-03-02T17:38:44;7.60;93.30
921;DHT22;447;51.332;6.778;2023-03-02T17:41:10;7.60;93.40
921;DHT22;447;51.332;6.778;2023-03-02T17:43:41;7.60;93.40
921;DHT22;447;51.332;6.778;2023-03-02T17:48:41;7.60;93.50
921;DHT22;447;51.332;6.778;2023-03-02T17:51:10;7.60;93.60
921;DHT22;447;51.332;6.778;2023-03-02T17:53:38;7.60;93.60
921;DHT22;447;51.332;6.778;2023-03-02T17:56:07;7.60;93.70
921;DHT22;447;51.332;6.778;2023-03-02T17:58:35;7.60;93.70
921;DHT22;447;51.332;6.778;2023-03-02T18:01:05;7.60;93.80
921;DHT22;447;51.332;6.778;2023-03-02T18:03:33;7.50;93.70
921;DHT22;447;51.332;6.778;2023-03-02T18:06:02;7.50;93.80
921;DHT22;447;51.332;6.778;2023-03-02T18:08:28;7.50;93.80
921;DHT22;447;51.332;6.778;2023-03-02T18:10:58;7.50;93.90
921;DHT22;447;51.332;6.778;2023-03-02T18:13:27;7.50;93.90
921;DHT22;447;51.332;6.778;2023-03-02T18:15:53;7.50;94.00
921;DHT22;447;51.332;6.778;2023-03-02T18:18:19;7.50;94.00
921;DHT22;447;51.332;6.778;2023-03-02T18:20:45;7.50;94.10
921;DHT22;447;51.332;6.778;2023-03-02T18:23:13;7.50;94.20